createdAt,value
2018-11-14T00:01:10.016Z,99.43
2018-11-14T00:03:39.697Z,99.37
2018-11-14T00:06:09.032Z,99.65
2018-11-14T00:08:42.683Z,99.33
2018-11-14T00:11:15.953Z,99.15
2018-11-14T00:13:46.282Z,98.72
2018-11-14T00:16:15.453Z,99.02
2018-11-14T00:18:47.179Z,99.85
2018-11-14T00:21:16.733Z,100.00
2018-11-14T00:23:45.246Z,100.00
2018-11-14T00:26:13.762Z,100.00
2018-11-14T00:28:42.651Z,100.00
2018-11-14T00:31:16.699Z,100.00
2018-11-14T00:33:49.243Z,100.00
2018-11-14T00:37:00.245Z,100.00
2018-11-14T00:39:30.300Z,100.00
2018-11-14T00:42:03.370Z,100.00
2018-11-14T00:44:34.576Z,100.00
2018-11-14T00:47:05.501Z,100.00
2018-11-14T00:49:38.516Z,100.00
2018-11-14T00:52:08.786Z,100.00
2018-11-14T00:54:42.507Z,100.00
2018-11-14T00:57:13.056Z,100.00
2018-11-14T00:59:41.856Z,100.00
2018-11-14T01:02:15.419Z,100.00
2018-11-14T01:04:45.415Z,100.00
2018-11-14T01:07:14.961Z,100.00
2018-11-14T01:09:44.886Z,100.00
2018-11-14T01:12:14.227Z,100.00
2018-11-14T01:14:43.760Z,100.00
2018-11-14T01:17:11.996Z,100.00
2018-11-14T01:19:40.145Z,100.00
2018-11-14T01:22:08.270Z,100.00
2018-11-14T01:24:36.372Z,100.00
2018-11-14T01:27:04.476Z,100.00
2018-11-14T01:29:32.559Z,100.00
2018-11-14T01:32:00.723Z,100.00
2018-11-14T01:34:28.807Z,100.00
2018-11-14T01:36:56.895Z,100.00
2018-11-14T01:39:24.959Z,100.00
2018-11-14T01:41:53.043Z,100.00
2018-11-14T01:44:21.128Z,100.00
2018-11-14T01:46:49.244Z,100.00
2018-11-14T01:49:17.350Z,100.00
2018-11-14T01:51:45.424Z,100.00
2018-11-14T01:54:13.506Z,100.00
2018-11-14T01:56:41.580Z,100.00
2018-11-14T01:59:09.668Z,100.00
2018-11-14T02:01:37.768Z,100.00
2018-11-14T02:04:05.847Z,100.00
2018-11-14T02:06:33.947Z,100.00
2018-11-14T02:09:02.053Z,100.00
2018-11-14T02:11:30.173Z,100.00
2018-11-14T02:13:58.243Z,100.00
2018-11-14T02:16:26.328Z,100.00
2018-11-14T02:18:54.451Z,100.00
2018-11-14T02:21:22.531Z,100.00
2018-11-14T02:23:50.640Z,100.00
2018-11-14T02:26:18.724Z,100.00
2018-11-14T02:28:46.796Z,100.00
2018-11-14T02:31:14.889Z,100.00
2018-11-14T02:33:43.189Z,100.00
2018-11-14T02:36:11.275Z,100.00
2018-11-14T02:38:39.379Z,100.00
2018-11-14T02:41:07.459Z,100.00
2018-11-14T02:43:35.540Z,100.00
2018-11-14T02:46:03.651Z,100.00
2018-11-14T02:48:31.707Z,100.00
2018-11-14T02:51:16.041Z,100.00
2018-11-14T02:53:44.232Z,100.00
2018-11-14T02:56:12.372Z,100.00
2018-11-14T02:58:40.455Z,100.00
2018-11-14T03:01:08.803Z,100.00
2018-11-14T03:03:36.901Z,100.00
2018-11-14T03:06:05.204Z,100.00
2018-11-14T03:08:33.600Z,100.00
2018-11-14T03:11:01.721Z,100.00
2018-11-14T03:13:29.804Z,100.00
2018-11-14T03:15:57.891Z,100.00
2018-11-14T03:18:25.983Z,100.00
2018-11-14T03:20:54.091Z,100.00
2018-11-14T03:23:22.192Z,100.00
2018-11-14T03:25:50.505Z,100.00
2018-11-14T03:28:18.635Z,100.00
2018-11-14T03:30:46.725Z,100.00
2018-11-14T03:33:14.824Z,100.00
2018-11-14T03:35:48.229Z,100.00
2018-11-14T03:38:16.316Z,100.00
2018-11-14T03:40:44.404Z,100.00
2018-11-14T03:43:12.508Z,100.00
2018-11-14T03:45:40.584Z,100.00
2018-11-14T03:48:08.685Z,100.00
2018-11-14T03:50:36.757Z,100.00
2018-11-14T03:53:05.196Z,100.00
2018-11-14T03:55:33.309Z,100.00
2018-11-14T03:58:01.558Z,100.00
2018-11-14T04:00:29.595Z,100.00
2018-11-14T04:02:57.707Z,100.00
2018-11-14T04:05:25.907Z,100.00
2018-11-14T04:07:54.839Z,100.00
2018-11-14T04:10:23.103Z,100.00
2018-11-14T04:12:51.179Z,100.00
2018-11-14T04:15:19.281Z,100.00
2018-11-14T04:17:47.376Z,100.00
2018-11-14T04:20:16.624Z,100.00
2018-11-14T04:22:45.154Z,100.00
2018-11-14T04:25:15.059Z,100.00
2018-11-14T04:27:44.075Z,100.00
2018-11-14T04:30:14.273Z,100.00
2018-11-14T04:32:43.000Z,100.00
2018-11-14T04:35:12.488Z,100.00
2018-11-14T04:37:40.584Z,100.00
2018-11-14T04:40:10.785Z,100.00
2018-11-14T04:42:39.131Z,100.00
2018-11-14T04:45:09.776Z,100.00
2018-11-14T04:47:37.875Z,100.00
2018-11-14T04:50:07.896Z,100.00
2018-11-14T04:52:36.636Z,100.00
2018-11-14T04:55:05.257Z,100.00
2018-11-14T04:57:33.348Z,100.00
2018-11-14T05:00:01.472Z,100.00
2018-11-14T05:02:29.602Z,100.00
2018-11-14T05:04:57.675Z,100.00
2018-11-14T05:07:25.740Z,100.00
2018-11-14T05:09:53.837Z,100.00
2018-11-14T05:12:21.915Z,100.00
2018-11-14T05:14:50.015Z,100.00
2018-11-14T05:17:18.101Z,100.00
2018-11-14T05:19:46.227Z,100.00
2018-11-14T05:22:14.969Z,100.00
2018-11-14T05:24:43.221Z,100.00
2018-11-14T05:27:11.200Z,100.00
2018-11-14T05:29:39.555Z,100.00
2018-11-14T05:32:07.666Z,100.00
2018-11-14T05:34:35.820Z,100.00
2018-11-14T05:37:03.919Z,100.00
2018-11-14T05:39:32.015Z,100.00
2018-11-14T05:42:00.092Z,100.00
2018-11-14T05:44:28.180Z,100.00
2018-11-14T05:46:56.704Z,100.00
2018-11-14T05:49:24.815Z,100.00
2018-11-14T05:51:52.895Z,100.00
2018-11-14T05:54:20.967Z,100.00
2018-11-14T05:56:49.115Z,100.00
2018-11-14T05:59:17.275Z,100.00
2018-11-14T06:01:46.011Z,100.00
2018-11-14T06:04:14.334Z,100.00
2018-11-14T06:06:42.427Z,100.00
2018-11-14T06:09:12.317Z,100.00
2018-11-14T06:11:40.415Z,100.00
2018-11-14T06:14:08.563Z,100.00
2018-11-14T06:16:36.755Z,100.00
2018-11-14T06:19:04.953Z,100.00
2018-11-14T06:21:33.399Z,100.00
2018-11-14T06:24:01.493Z,100.00
2018-11-14T06:26:29.611Z,100.00
2018-11-14T06:28:57.705Z,100.00
2018-11-14T06:31:25.814Z,100.00
2018-11-14T06:33:53.891Z,100.00
2018-11-14T06:36:22.021Z,100.00
2018-11-14T06:38:50.088Z,100.00
2018-11-14T06:41:18.237Z,100.00
2018-11-14T06:43:46.351Z,100.00
2018-11-14T06:46:14.525Z,100.00
2018-11-14T06:48:42.651Z,100.00
2018-11-14T06:51:10.760Z,100.00
2018-11-14T06:53:38.842Z,100.00
2018-11-14T06:56:07.001Z,100.00
2018-11-14T06:58:35.187Z,100.00
2018-11-14T07:01:03.391Z,100.00
2018-11-14T07:03:31.593Z,100.00
2018-11-14T07:05:59.727Z,100.00
2018-11-14T07:08:27.747Z,100.00
2018-11-14T07:10:55.867Z,100.00
2018-11-14T07:13:23.959Z,100.00
2018-11-14T07:15:52.094Z,100.00
2018-11-14T07:18:20.191Z,100.00
2018-11-14T07:20:48.354Z,100.00
2018-11-14T07:23:16.442Z,100.00
2018-11-14T07:25:44.552Z,100.00
2018-11-14T07:28:12.673Z,100.00
2018-11-14T07:30:40.759Z,100.00
2018-11-14T07:33:09.991Z,100.00
2018-11-14T07:35:38.108Z,100.00
2018-11-14T07:38:41.034Z,100.00
2018-11-14T07:41:10.884Z,100.00
2018-11-14T07:43:39.483Z,100.00
2018-11-14T07:46:08.052Z,100.00
2018-11-14T07:48:36.427Z,100.00
2018-11-14T07:51:04.647Z,100.00
2018-11-14T07:53:33.178Z,100.00
2018-11-14T07:56:01.318Z,100.00
2018-11-14T07:58:29.430Z,100.00
2018-11-14T08:00:57.583Z,100.00
2018-11-14T08:03:27.079Z,100.00
2018-11-14T08:05:55.592Z,100.00
2018-11-14T08:08:23.810Z,100.00
2018-11-14T08:10:51.929Z,100.00
2018-11-14T08:13:23.161Z,100.00
2018-11-14T08:15:52.993Z,100.00
2018-11-14T08:18:21.812Z,100.00
2018-11-14T08:20:50.113Z,100.00
2018-11-14T08:23:24.861Z,100.00
2018-11-14T08:25:52.963Z,100.00
2018-11-14T08:28:21.071Z,100.00
2018-11-14T08:30:49.256Z,100.00
2018-11-14T08:33:17.419Z,100.00
2018-11-14T08:35:45.556Z,100.00
2018-11-14T08:38:13.902Z,100.00
2018-11-14T08:40:42.000Z,100.00
2018-11-14T08:43:10.310Z,100.00
2018-11-14T08:45:38.473Z,100.00
2018-11-14T08:48:07.088Z,100.00
2018-11-14T08:50:35.159Z,100.00
2018-11-14T08:53:03.412Z,100.00
2018-11-14T08:55:31.538Z,100.00
2018-11-14T08:57:59.675Z,100.00
2018-11-14T09:00:28.409Z,100.00
2018-11-14T09:02:56.532Z,100.00
2018-11-14T09:05:24.612Z,100.00
2018-11-14T09:07:52.793Z,100.00
2018-11-14T09:10:24.699Z,100.00
2018-11-14T09:12:52.853Z,100.00
2018-11-14T09:15:22.106Z,100.00
2018-11-14T09:17:50.366Z,100.00
2018-11-14T09:20:20.708Z,100.00
2018-11-14T09:22:48.859Z,100.00
2018-11-14T09:25:22.512Z,100.00
2018-11-14T09:27:50.679Z,100.00
2018-11-14T09:30:19.940Z,100.00
2018-11-14T09:32:49.168Z,100.00
2018-11-14T09:35:18.436Z,100.00
2018-11-14T09:37:46.676Z,100.00
2018-11-14T09:40:16.355Z,100.00
2018-11-14T09:42:44.467Z,100.00
2018-11-14T09:45:14.903Z,100.00
2018-11-14T09:47:43.047Z,100.00
2018-11-14T09:50:15.443Z,100.00
2018-11-14T09:52:44.629Z,100.00
2018-11-14T09:55:13.021Z,100.00
2018-11-14T09:57:41.834Z,100.00
2018-11-14T10:00:11.768Z,100.00
2018-11-14T10:02:40.298Z,100.00
2018-11-14T10:05:10.641Z,100.00
2018-11-14T10:07:39.438Z,100.00
2018-11-14T10:10:08.708Z,100.00
2018-11-14T10:12:37.689Z,100.00
2018-11-14T10:15:07.757Z,100.00
2018-11-14T10:17:36.291Z,100.00
2018-11-14T10:20:04.850Z,100.00
2018-11-14T10:22:33.035Z,100.00
2018-11-14T10:25:02.144Z,100.00
2018-11-14T10:27:30.228Z,100.00
2018-11-14T10:29:58.447Z,100.00
2018-11-14T10:32:26.583Z,100.00
2018-11-14T10:34:54.744Z,100.00
2018-11-14T10:37:22.859Z,100.00
2018-11-14T10:39:51.032Z,100.00
2018-11-14T10:42:19.128Z,100.00
2018-11-14T10:44:47.219Z,100.00
2018-11-14T10:47:15.309Z,100.00
2018-11-14T10:49:44.591Z,100.00
2018-11-14T10:52:12.685Z,100.00
2018-11-14T10:54:40.786Z,99.98
2018-11-14T10:57:08.900Z,99.16
2018-11-14T10:59:37.140Z,99.29
2018-11-14T11:02:11.060Z,98.60
2018-11-14T11:04:44.423Z,98.19
2018-11-14T11:07:17.740Z,98.03
2018-11-14T11:12:44.318Z,97.46
2018-11-14T11:15:18.356Z,97.43
2018-11-14T11:17:52.776Z,97.25
2018-11-14T11:20:20.888Z,97.36
2018-11-14T11:22:48.978Z,97.42
2018-11-14T11:25:17.291Z,97.54
2018-11-14T11:27:45.387Z,97.34
2018-11-14T11:30:13.496Z,96.28
2018-11-14T11:32:41.643Z,95.63
2018-11-14T11:35:09.711Z,96.39
2018-11-14T11:37:37.805Z,96.23
2018-11-14T11:40:06.688Z,96.03
2018-11-14T11:42:34.780Z,94.58
2018-11-14T11:45:02.880Z,95.22
2018-11-14T11:47:31.052Z,95.61
2018-11-14T11:49:59.220Z,95.56
2018-11-14T11:52:28.112Z,95.72
2018-11-14T11:54:56.247Z,95.25
2018-11-14T11:57:24.408Z,96.09
2018-11-14T11:59:52.696Z,95.33
2018-11-14T12:02:20.839Z,94.13
2018-11-14T12:04:48.901Z,93.88
2018-11-14T12:07:17.023Z,93.99
2018-11-14T12:09:45.240Z,93.72
2018-11-14T12:12:13.339Z,94.17
2018-11-14T12:14:41.428Z,93.61
2018-11-14T12:17:09.575Z,94.44
2018-11-14T12:19:37.920Z,94.33
2018-11-14T12:22:06.047Z,94.49
2018-11-14T12:24:34.129Z,95.33
2018-11-14T12:27:02.234Z,94.45
2018-11-14T12:29:31.187Z,94.57
2018-11-14T12:31:59.295Z,94.89
2018-11-14T12:34:27.876Z,94.99
2018-11-14T12:36:56.015Z,94.92
2018-11-14T12:39:24.137Z,94.98
2018-11-14T12:41:52.223Z,94.66
2018-11-14T12:44:20.359Z,94.11
2018-11-14T12:46:48.490Z,95.07
2018-11-14T12:49:16.640Z,94.92
2018-11-14T12:51:44.788Z,95.47
2018-11-14T12:54:12.919Z,95.66
2018-11-14T12:56:41.039Z,95.38
2018-11-14T12:59:09.160Z,95.76
2018-11-14T13:01:37.296Z,95.92
2018-11-14T13:04:05.560Z,95.66
2018-11-14T13:06:33.665Z,95.43
2018-11-14T13:09:01.796Z,95.19
2018-11-14T13:11:29.921Z,94.88
2018-11-14T13:13:58.032Z,94.81
2018-11-14T13:16:26.160Z,95.34
2018-11-14T13:18:54.936Z,95.28
2018-11-14T13:21:23.176Z,95.48
2018-11-14T13:23:51.391Z,94.32
2018-11-14T13:29:00.443Z,94.83
2018-11-14T13:31:28.469Z,94.90
2018-11-14T13:33:56.567Z,95.06
2018-11-14T13:36:24.955Z,95.34
2018-11-14T13:38:53.042Z,94.49
2018-11-14T13:41:21.133Z,94.91
2018-11-14T13:43:50.027Z,95.64
2018-11-14T13:46:18.092Z,95.11
2018-11-14T13:48:46.458Z,94.57
2018-11-14T13:51:14.720Z,94.21
2018-11-14T13:53:42.678Z,94.45
2018-11-14T13:56:10.736Z,94.32
2018-11-14T13:58:38.840Z,94.48
2018-11-14T14:01:07.014Z,94.52
2018-11-14T14:03:35.131Z,93.89
2018-11-14T14:06:03.235Z,94.12
2018-11-14T14:08:31.369Z,94.45
2018-11-14T14:10:59.431Z,94.73
2018-11-14T14:13:27.532Z,93.84
2018-11-14T14:15:55.948Z,94.00
2018-11-14T14:18:24.052Z,94.34
2018-11-14T14:20:52.375Z,94.25
2018-11-14T14:23:20.486Z,93.62
2018-11-14T14:25:48.576Z,93.77
2018-11-14T14:28:16.691Z,93.67
2018-11-14T14:30:45.990Z,92.77
2018-11-14T14:33:14.037Z,93.27
2018-11-14T14:35:42.134Z,92.83
2018-11-14T14:38:10.295Z,92.68
2018-11-14T14:40:38.394Z,92.32
2018-11-14T14:43:06.489Z,92.61
2018-11-14T14:45:34.612Z,93.07
2018-11-14T14:48:02.815Z,92.75
2018-11-14T14:50:30.956Z,92.70
2018-11-14T14:52:59.130Z,92.58
2018-11-14T14:55:27.255Z,93.34
2018-11-14T14:57:55.356Z,92.97
2018-11-14T15:00:24.768Z,93.42
2018-11-14T15:02:52.859Z,93.41
2018-11-14T15:05:20.960Z,93.64
2018-11-14T15:07:49.048Z,93.59
2018-11-14T15:10:18.322Z,94.57
2018-11-14T15:12:46.672Z,94.06
2018-11-14T15:15:15.239Z,94.26
2018-11-14T15:17:44.020Z,94.28
2018-11-14T15:20:14.644Z,94.24
2018-11-14T15:22:42.947Z,93.87
2018-11-14T15:25:12.655Z,94.14
2018-11-14T15:27:41.636Z,94.34
2018-11-14T15:30:13.875Z,93.96
2018-11-14T15:32:42.203Z,94.68
2018-11-14T15:35:11.589Z,94.68
2018-11-14T15:37:39.792Z,94.83
2018-11-14T15:40:10.044Z,95.22
2018-11-14T15:42:38.678Z,94.64
2018-11-14T15:45:09.845Z,95.17
2018-11-14T15:47:38.556Z,95.22
2018-11-14T15:50:09.104Z,95.28
2018-11-14T15:52:37.216Z,95.52
2018-11-14T15:55:06.507Z,95.59
2018-11-14T15:57:34.911Z,96.12
2018-11-14T16:00:03.009Z,96.12
2018-11-14T16:02:31.132Z,96.52
2018-11-14T16:04:59.284Z,97.11
2018-11-14T16:07:27.406Z,96.66
2018-11-14T16:09:55.495Z,96.69
2018-11-14T16:12:23.635Z,96.79
2018-11-14T16:14:51.693Z,97.32
2018-11-14T16:17:19.780Z,96.96
2018-11-14T16:19:47.876Z,97.43
2018-11-14T16:22:15.979Z,97.85
2018-11-14T16:24:44.128Z,97.53
2018-11-14T16:27:12.416Z,98.13
2018-11-14T16:29:40.615Z,97.70
2018-11-14T16:32:08.711Z,97.43
2018-11-14T16:34:36.804Z,96.95
2018-11-14T16:37:04.924Z,96.47
2018-11-14T16:39:33.004Z,96.62
2018-11-14T16:42:01.119Z,94.90
2018-11-14T16:44:29.289Z,94.36
2018-11-14T16:46:57.377Z,94.06
2018-11-14T16:49:25.462Z,94.29
2018-11-14T16:51:53.630Z,94.64
2018-11-14T16:54:21.772Z,94.57
2018-11-14T16:56:49.855Z,94.79
2018-11-14T16:59:17.986Z,94.50
2018-11-14T17:01:46.111Z,94.45
2018-11-14T17:04:14.211Z,94.98
2018-11-14T17:06:42.323Z,94.74
2018-11-14T17:09:12.096Z,95.17
2018-11-14T17:11:40.264Z,95.13
2018-11-14T17:14:08.740Z,96.08
2018-11-14T17:16:37.052Z,96.06
2018-11-14T17:19:05.791Z,96.79
2018-11-14T17:21:34.527Z,96.67
2018-11-14T17:24:02.892Z,96.28
2018-11-14T17:26:31.244Z,96.04
2018-11-14T17:28:59.336Z,95.50
2018-11-14T17:31:27.471Z,96.49
2018-11-14T17:33:55.591Z,96.47
2018-11-14T17:36:23.674Z,96.87
2018-11-14T17:38:51.759Z,95.51
2018-11-14T17:41:19.881Z,95.74
2018-11-14T17:43:47.978Z,96.00
2018-11-14T17:46:16.353Z,95.29
2018-11-14T17:48:44.460Z,95.81
2018-11-14T17:51:12.604Z,95.71
2018-11-14T17:53:40.712Z,95.34
2018-11-14T17:56:08.829Z,95.51
2018-11-14T17:58:37.014Z,94.89
2018-11-14T18:01:05.348Z,94.71
2018-11-14T18:03:33.434Z,94.91
2018-11-14T18:06:01.518Z,94.81
2018-11-14T18:08:29.622Z,95.38
2018-11-14T18:10:57.749Z,94.95
2018-11-14T18:13:25.890Z,95.03
2018-11-14T18:15:54.023Z,94.83
2018-11-14T18:18:22.225Z,94.79
2018-11-14T18:20:50.371Z,94.42
2018-11-14T18:23:18.480Z,94.95
2018-11-14T18:25:46.599Z,94.48
2018-11-14T18:28:14.735Z,94.72
2018-11-14T18:30:42.923Z,95.22
2018-11-14T18:33:10.968Z,95.67
2018-11-14T18:35:39.143Z,95.35
2018-11-14T18:38:07.293Z,94.89
2018-11-14T18:40:35.817Z,94.64
2018-11-14T18:43:04.432Z,94.47
2018-11-14T18:45:33.903Z,94.21
2018-11-14T18:48:02.495Z,95.04
2018-11-14T18:50:30.714Z,94.29
2018-11-14T18:52:58.796Z,95.34
2018-11-14T18:55:31.144Z,94.11
2018-11-14T18:57:59.939Z,95.47
2018-11-14T19:00:29.220Z,94.89
2018-11-14T19:02:57.561Z,94.38
2018-11-14T19:05:25.640Z,95.00
2018-11-14T19:07:53.739Z,94.86
2018-11-14T19:10:23.134Z,95.11
2018-11-14T19:12:51.840Z,94.70
2018-11-14T19:15:35.410Z,94.40
2018-11-14T19:18:04.140Z,94.38
2018-11-14T19:20:34.188Z,94.16
2018-11-14T19:23:02.972Z,94.04
2018-11-14T19:25:33.420Z,93.99
2018-11-14T19:28:01.587Z,93.94
2018-11-14T19:30:32.516Z,94.18
2018-11-14T19:33:15.921Z,93.74
2018-11-14T19:35:47.994Z,94.71
2018-11-14T19:38:26.114Z,94.46
2018-11-14T19:40:56.961Z,94.70
2018-11-14T19:43:28.225Z,95.47
2018-11-14T19:46:07.385Z,95.65
2018-11-14T19:48:39.799Z,95.47
2018-11-14T19:51:21.211Z,95.80
2018-11-14T19:53:57.027Z,94.97
2018-11-14T19:56:33.308Z,94.43
2018-11-14T19:59:06.218Z,93.77
2018-11-14T20:01:35.826Z,93.04
2018-11-14T20:04:05.983Z,93.25
2018-11-14T20:06:45.961Z,93.52
2018-11-14T20:09:15.291Z,93.07
2018-11-14T20:11:45.782Z,93.12
2018-11-14T20:14:23.321Z,93.67
2018-11-14T20:16:57.878Z,94.21
2018-11-14T20:19:28.383Z,95.17
2018-11-14T20:22:05.403Z,95.67
2018-11-14T20:24:43.277Z,95.72
2018-11-14T20:27:20.804Z,95.18
2018-11-14T20:29:56.821Z,95.37
2018-11-14T20:32:34.980Z,94.31
2018-11-14T20:35:10.174Z,95.00
2018-11-14T20:37:45.506Z,94.91
2018-11-14T20:40:20.166Z,94.58
2018-11-14T20:42:55.472Z,95.14
2018-11-14T20:45:29.677Z,94.89
2018-11-14T20:48:01.744Z,94.41
2018-11-14T20:50:36.371Z,94.00
2018-11-14T20:53:06.995Z,94.91
2018-11-14T20:55:39.943Z,94.58
2018-11-14T20:58:10.444Z,94.21
2018-11-14T21:00:42.623Z,93.33
2018-11-14T21:03:14.249Z,94.46
2018-11-14T21:05:47.929Z,93.98
2018-11-14T21:08:19.534Z,93.84
2018-11-14T21:10:53.993Z,93.86
2018-11-14T21:13:40.219Z,92.74
2018-11-14T21:16:21.040Z,92.44
2018-11-14T21:18:53.557Z,92.99
2018-11-14T21:21:23.309Z,93.15
2018-11-14T21:23:51.458Z,92.80
2018-11-14T21:26:23.225Z,92.72
2018-11-14T21:28:54.257Z,92.56
2018-11-14T21:31:31.490Z,92.69
2018-11-14T21:34:02.052Z,92.89
2018-11-14T21:36:35.613Z,93.05
2018-11-14T21:39:10.573Z,93.08
2018-11-14T21:41:40.242Z,92.74
2018-11-14T21:44:12.317Z,92.58
2018-11-14T21:46:46.483Z,92.12
2018-11-14T21:49:21.816Z,92.18
2018-11-14T21:51:58.717Z,92.68
2018-11-14T21:54:29.830Z,91.06
2018-11-14T21:57:05.034Z,92.30
2018-11-14T21:59:44.513Z,92.50
2018-11-14T22:02:17.588Z,91.45
2018-11-14T22:04:48.208Z,92.11
2018-11-14T22:07:26.547Z,91.75
2018-11-14T22:10:01.638Z,91.09
2018-11-14T22:15:27.192Z,91.14
2018-11-14T22:17:57.739Z,90.66
2018-11-14T22:20:30.874Z,91.08
2018-11-14T22:23:01.323Z,90.73
2018-11-14T22:25:36.232Z,91.19
2018-11-14T22:28:10.761Z,91.04
2018-11-14T22:30:45.140Z,91.02
2018-11-14T22:33:21.330Z,90.96
2018-11-14T22:35:53.575Z,90.99
2018-11-14T22:38:31.503Z,90.80
2018-11-14T22:40:59.631Z,92.30
2018-11-14T22:43:27.706Z,91.65
2018-11-14T22:45:55.808Z,91.81
2018-11-14T22:48:24.230Z,91.97
2018-11-14T22:50:52.335Z,92.05
2018-11-14T22:53:21.247Z,92.20
2018-11-14T22:55:49.951Z,91.35
2018-11-14T22:58:18.050Z,91.27
2018-11-14T23:00:46.734Z,91.57
2018-11-14T23:03:15.796Z,92.02
2018-11-14T23:05:47.801Z,91.13
2018-11-14T23:08:19.869Z,91.10
2018-11-14T23:10:57.177Z,91.49
2018-11-14T23:13:30.217Z,91.81
2018-11-14T23:16:01.075Z,91.38
2018-11-14T23:18:30.711Z,91.82
2018-11-14T23:34:56.195Z,91.21
2018-11-14T23:37:25.510Z,91.85
2018-11-14T23:39:54.686Z,91.78
2018-11-14T23:42:24.286Z,91.65
2018-11-14T23:44:58.889Z,91.79
2018-11-14T23:47:32.004Z,92.05
2018-11-14T23:50:00.789Z,91.65
2018-11-14T23:52:37.026Z,91.30
2018-11-14T23:55:09.846Z,90.76
2018-11-14T23:57:38.427Z,91.04
